sensor_id;sensor_type;location;lat;lon;timestamp;pressure;altitude;pressure_sealevel;temperature;humidity
44675;BME280;30388;52.038;-1.478;2023-01-29T00:00:09;65583.45;;;8.28;100.00
44675;BME280;30388;52.038;-1.478;2023-01-29T00:02:36;65515.97;;;7.64;100.00
44675;BME280;30388;52.038;-1.478;2023-01-29T00:05:05;65575.64;;;8.41;100.00
44675;BME280;30388;52.038;-1.478;2023-01-29T00:07:32;65583.58;;;8.28;100.00
44675;BME280;30388;52.038;-1.478;2023-01-29T00:09:59;65599.02;;;8.48;100.00
44675;BME280;30388;52.038;-1.478;2023-01-29T00:12:26;65588.87;;;8.35;100.00
44675;BME280;30388;52.038;-1.478;2023-01-29T00:14:54;65626.25;;;8.60;100.00
44675;BME280;30388;52.038;-1.478;2023-01-29T00:17:21;65641.19;;;8.79;100.00
44675;BME280;30388;52.038;-1.478;2023-01-29T00:19:48;65659.24;;;9.24;100.00
44675;BME280;30388;52.038;-1.478;2023-01-29T00:22:16;65648.40;;;8.89;100.00
44675;BME280;30388;52.038;-1.478;2023-01-29T00:24:43;65682.29;;;8.82;100.00
44675;BME280;30388;52.038;-1.478;2023-01-29T00:27:10;65651.52;;;8.91;100.00
44675;BME280;30388;52.038;-1.478;2023-01-29T00:29:37;65685.37;;;9.08;100.00
44675;BME280;30388;52.038;-1.478;2023-01-29T00:32:04;65701.00;;;9.55;100.00
44675;BME280;30388;52.038;-1.478;2023-01-29T00:34:31;65724.43;;;9.58;100.00
44675;BME280;30388;52.038;-1.478;2023-01-29T00:36:59;65707.30;;;9.36;100.00
44675;BME280;30388;52.038;-1.478;2023-01-29T00:39:26;65595.33;;;8.66;100.00
44675;BME280;30388;52.038;-1.478;2023-01-29T00:41:53;65570.82;;;8.12;100.00
44675;BME280;30388;52.038;-1.478;2023-01-29T00:44:21;65623.53;;;9.01;100.00
44675;BME280;30388;52.038;-1.478;2023-01-29T00:46:48;65535.41;;;7.89;100.00
44675;BME280;30388;52.038;-1.478;2023-01-29T00:49:15;65576.44;;;8.19;100.00
44675;BME280;30388;52.038;-1.478;2023-01-29T00:51:43;65574.51;;;8.39;100.00
44675;BME280;30388;52.038;-1.478;2023-01-29T00:54:10;65447.52;;;6.78;100.00
44675;BME280;30388;52.038;-1.478;2023-01-29T00:56:37;65382.40;;;6.66;100.00
44675;BME280;30388;52.038;-1.478;2023-01-29T00:59:04;65399.42;;;6.88;100.00
44675;BME280;30388;52.038;-1.478;2023-01-29T01:01:32;65389.61;;;6.31;100.00
44675;BME280;30388;52.038;-1.478;2023-01-29T01:03:59;65333.72;;;6.05;100.00
44675;BME280;30388;52.038;-1.478;2023-01-29T01:06:26;65344.83;;;6.19;100.00
44675;BME280;30388;52.038;-1.478;2023-01-29T01:08:54;65310.26;;;6.02;100.00
44675;BME280;30388;52.038;-1.478;2023-01-29T01:11:21;65384.50;;;6.47;100.00
44675;BME280;30388;52.038;-1.478;2023-01-29T01:13:48;65404.61;;;6.73;100.00
44675;BME280;30388;52.038;-1.478;2023-01-29T01:16:17;65478.84;;;7.18;100.00
44675;BME280;30388;52.038;-1.478;2023-01-29T01:18:44;65379.14;;;6.40;100.00
44675;BME280;30388;52.038;-1.478;2023-01-29T01:21:12;65408.85;;;6.78;100.00
44675;BME280;30388;52.038;-1.478;2023-01-29T01:23:38;65361.22;;;6.40;100.00
44675;BME280;30388;52.038;-1.478;2023-01-29T01:26:08;65361.67;;;6.19;100.00
44675;BME280;30388;52.038;-1.478;2023-01-29T01:28:36;65427.00;;;7.01;100.00
44675;BME280;30388;52.038;-1.478;2023-01-29T01:31:08;65398.18;;;6.64;100.00
44675;BME280;30388;52.038;-1.478;2023-01-29T01:33:36;65348.94;;;6.02;100.00
44675;BME280;30388;52.038;-1.478;2023-01-29T01:36:03;65409.73;;;6.79;100.00
44675;BME280;30388;52.038;-1.478;2023-01-29T01:38:30;65380.13;;;6.64;100.00
44675;BME280;30388;52.038;-1.478;2023-01-29T01:40:57;65376.25;;;6.59;100.00
44675;BME280;30388;52.038;-1.478;2023-01-29T01:43:24;65383.53;;;6.45;100.00
44675;BME280;30388;52.038;-1.478;2023-01-29T01:45:51;65345.73;;;5.98;100.00
44675;BME280;30388;52.038;-1.478;2023-01-29T01:48:21;65334.45;;;6.07;100.00
44675;BME280;30388;52.038;-1.478;2023-01-29T01:50:54;65318.86;;;6.12;100.00
44675;BME280;30388;52.038;-1.478;2023-01-29T01:53:27;65382.86;;;6.45;100.00
44675;BME280;30388;52.038;-1.478;2023-01-29T01:55:58;65383.63;;;6.68;100.00
44675;BME280;30388;52.038;-1.478;2023-01-29T01:58:29;65275.36;;;5.31;100.00
44675;BME280;30388;52.038;-1.478;2023-01-29T02:00:58;65421.17;;;6.94;100.00
44675;BME280;30388;52.038;-1.478;2023-01-29T02:03:26;65478.07;;;7.44;100.00
44675;BME280;30388;52.038;-1.478;2023-01-29T02:05:56;65511.49;;;7.59;100.00
44675;BME280;30388;52.038;-1.478;2023-01-29T02:08:31;65525.91;;;7.55;100.00
44675;BME280;30388;52.038;-1.478;2023-01-29T02:11:01;65516.79;;;7.66;100.00
44675;BME280;30388;52.038;-1.478;2023-01-29T02:13:28;65485.19;;;7.25;100.00
44675;BME280;30388;52.038;-1.478;2023-01-29T02:15:55;65562.65;;;8.24;100.00
44675;BME280;30388;52.038;-1.478;2023-01-29T02:18:22;65535.48;;;7.89;100.00
44675;BME280;30388;52.038;-1.478;2023-01-29T02:21:05;65546.70;;;7.82;100.00
44675;BME280;30388;52.038;-1.478;2023-01-29T02:23:53;65563.45;;;8.03;100.00
44675;BME280;30388;52.038;-1.478;2023-01-29T02:28:42;65563.66;;;8.25;100.00
44675;BME280;30388;52.038;-1.478;2023-01-29T02:31:18;65535.35;;;7.90;100.00
44675;BME280;30388;52.038;-1.478;2023-01-29T02:33:55;65549.94;;;7.86;100.00
44675;BME280;30388;52.038;-1.478;2023-01-29T02:36:33;65553.05;;;8.12;100.00
44675;BME280;30388;52.038;-1.478;2023-01-29T02:39:11;65506.54;;;7.53;100.00
44675;BME280;30388;52.038;-1.478;2023-01-29T02:41:44;65529.85;;;7.82;100.00
44675;BME280;30388;52.038;-1.478;2023-01-29T02:44:19;65502.81;;;7.48;100.00
44675;BME280;30388;52.038;-1.478;2023-01-29T02:46:55;65513.93;;;7.63;100.00
44675;BME280;30388;52.038;-1.478;2023-01-29T02:49:31;65502.57;;;7.47;100.00
44675;BME280;30388;52.038;-1.478;2023-01-29T02:52:03;65490.28;;;7.32;100.00
44675;BME280;30388;52.038;-1.478;2023-01-29T02:54:42;65477.55;;;7.16;100.00
44675;BME280;30388;52.038;-1.478;2023-01-29T02:57:16;65497.29;;;7.41;100.00
44675;BME280;30388;52.038;-1.478;2023-01-29T02:59:49;65428.67;;;7.03;100.00
44675;BME280;30388;52.038;-1.478;2023-01-29T03:02:22;65482.58;;;7.22;100.00
44675;BME280;30388;52.038;-1.478;2023-01-29T03:04:57;65464.30;;;6.99;100.00
44675;BME280;30388;52.038;-1.478;2023-01-29T03:07:30;65391.37;;;6.34;100.00
44675;BME280;30388;52.038;-1.478;2023-01-29T03:10:00;65446.31;;;7.25;100.00
44675;BME280;30388;52.038;-1.478;2023-01-29T03:12:29;65435.77;;;6.63;100.00
44675;BME280;30388;52.038;-1.478;2023-01-29T03:15:02;65440.22;;;6.95;100.00
44675;BME280;30388;52.038;-1.478;2023-01-29T03:17:38;65449.03;;;7.07;100.00
44675;BME280;30388;52.038;-1.478;2023-01-29T03:20:12;65446.17;;;6.77;100.00
44675;BME280;30388;52.038;-1.478;2023-01-29T03:22:45;65422.08;;;6.72;100.00
44675;BME280;30388;52.038;-1.478;2023-01-29T03:25:17;65410.90;;;6.58;100.00
44675;BME280;30388;52.038;-1.478;2023-01-29T03:27:50;65439.45;;;7.16;100.00
44675;BME280;30388;52.038;-1.478;2023-01-29T03:30:19;65406.12;;;6.74;100.00
44675;BME280;30388;52.038;-1.478;2023-01-29T03:32:49;65417.15;;;6.89;100.00
44675;BME280;30388;52.038;-1.478;2023-01-29T03:35:20;65416.85;;;6.66;100.00
44675;BME280;30388;52.038;-1.478;2023-01-29T03:37:49;65440.29;;;6.95;100.00
44675;BME280;30388;52.038;-1.478;2023-01-29T03:40:16;65434.26;;;6.88;100.00
44675;BME280;30388;52.038;-1.478;2023-01-29T03:42:51;65453.52;;;7.13;100.00
44675;BME280;30388;52.038;-1.478;2023-01-29T03:45:26;65507.73;;;7.81;100.00
44675;BME280;30388;52.038;-1.478;2023-01-29T03:48:05;65484.34;;;7.25;100.00
44675;BME280;30388;52.038;-1.478;2023-01-29T03:50:37;65524.81;;;7.77;100.00
44675;BME280;30388;52.038;-1.478;2023-01-29T03:53:14;65526.33;;;7.78;100.00
44675;BME280;30388;52.038;-1.478;2023-01-29T03:55:46;65563.72;;;8.26;100.00
44675;BME280;30388;52.038;-1.478;2023-01-29T03:58:23;65522.48;;;7.73;100.00
44675;BME280;30388;52.038;-1.478;2023-01-29T04:00:57;65551.61;;;7.89;100.00
44675;BME280;30388;52.038;-1.478;2023-01-29T04:03:31;65510.74;;;7.57;100.00
44675;BME280;30388;52.038;-1.478;2023-01-29T04:06:06;65507.57;;;7.54;100.00
44675;BME280;30388;52.038;-1.478;2023-01-29T04:08:37;65521.27;;;7.71;100.00
44675;BME280;30388;52.038;-1.478;2023-01-29T04:11:13;65517.60;;;7.68;100.00
44675;BME280;30388;52.038;-1.478;2023-01-29T04:13:42;65533.18;;;7.87;100.00
44675;BME280;30388;52.038;-1.478;2023-01-29T04:16:14;65533.23;;;7.86;100.00
44675;BME280;30388;52.038;-1.478;2023-01-29T04:18:45;65516.74;;;7.66;100.00
44675;BME280;30388;52.038;-1.478;2023-01-29T04:21:13;65554.67;;;8.14;100.00
44675;BME280;30388;52.038;-1.478;2023-01-29T04:23:41;65462.54;;;7.46;100.00
44675;BME280;30388;52.038;-1.478;2023-01-29T04:26:23;65469.35;;;7.06;100.00
44675;BME280;30388;52.038;-1.478;2023-01-29T04:29:03;65501.78;;;7.47;100.00
44675;BME280;30388;52.038;-1.478;2023-01-29T04:31:40;65517.40;;;7.67;100.00
44675;BME280;30388;52.038;-1.478;2023-01-29T04:34:14;65535.03;;;7.88;100.00
44675;BME280;30388;52.038;-1.478;2023-01-29T04:36:53;65572.15;;;8.36;100.00
44675;BME280;30388;52.038;-1.478;2023-01-29T04:39:31;65579.11;;;8.45;100.00
44675;BME280;30388;52.038;-1.478;2023-01-29T04:42:08;65565.43;;;8.05;100.00
44675;BME280;30388;52.038;-1.478;2023-01-29T04:44:42;65601.46;;;8.74;100.00
44675;BME280;30388;52.038;-1.478;2023-01-29T04:47:19;65528.18;;;7.80;100.00
44675;BME280;30388;52.038;-1.478;2023-01-29T04:49:55;65562.37;;;8.24;100.00
44675;BME280;30388;52.038;-1.478;2023-01-29T04:52:32;65542.19;;;7.76;100.00
44675;BME280;30388;52.038;-1.478;2023-01-29T04:55:07;65593.78;;;8.41;100.00
44675;BME280;30388;52.038;-1.478;2023-01-29T04:57:45;65589.19;;;8.13;100.00
44675;BME280;30388;52.038;-1.478;2023-01-29T05:00:18;65582.55;;;8.27;100.00
44675;BME280;30388;52.038;-1.478;2023-01-29T05:02:48;65597.68;;;8.47;100.00
44675;BME280;30388;52.038;-1.478;2023-01-29T05:05:17;65591.31;;;8.38;100.00
44675;BME280;30388;52.038;-1.478;2023-01-29T05:07:45;65587.75;;;8.34;100.00
44675;BME280;30388;52.038;-1.478;2023-01-29T05:10:16;65487.63;;;7.29;100.00
44675;BME280;30388;52.038;-1.478;2023-01-29T05:12:48;65548.91;;;8.07;100.00
44675;BME280;30388;52.038;-1.478;2023-01-29T05:15:22;65526.15;;;7.77;100.00
44675;BME280;30388;52.038;-1.478;2023-01-29T05:17:50;65544.85;;;8.01;100.00
44675;BME280;30388;52.038;-1.478;2023-01-29T05:20:17;65525.36;;;7.76;100.00
44675;BME280;30388;52.038;-1.478;2023-01-29T05:22:45;65550.35;;;8.09;100.00
44675;BME280;30388;52.038;-1.478;2023-01-29T05:25:21;65552.55;;;7.89;100.00
44675;BME280;30388;52.038;-1.478;2023-01-29T05:27:50;65552.04;;;8.11;100.00
44675;BME280;30388;52.038;-1.478;2023-01-29T05:30:18;65492.05;;;7.35;100.00
44675;BME280;30388;52.038;-1.478;2023-01-29T05:32:45;65545.51;;;8.03;100.00
44675;BME280;30388;52.038;-1.478;2023-01-29T05:35:12;65534.83;;;7.66;100.00
44675;BME280;30388;52.038;-1.478;2023-01-29T05:37:39;65495.06;;;7.65;100.00
44675;BME280;30388;52.038;-1.478;2023-01-29T05:40:08;65518.90;;;7.69;100.00
44675;BME280;30388;52.038;-1.478;2023-01-29T05:42:35;65537.06;;;7.91;100.00
44675;BME280;30388;52.038;-1.478;2023-01-29T05:45:03;65567.46;;;8.08;100.00
44675;BME280;30388;52.038;-1.478;2023-01-29T05:47:30;65545.89;;;8.03;100.00
44675;BME280;30388;52.038;-1.478;2023-01-29T05:49:56;65597.40;;;8.68;100.00
44675;BME280;30388;52.038;-1.478;2023-01-29T05:52:23;65587.99;;;8.34;100.00
44675;BME280;30388;52.038;-1.478;2023-01-29T05:54:50;65590.70;;;8.60;100.00
44675;BME280;30388;52.038;-1.478;2023-01-29T05:57:17;65571.67;;;8.35;100.00
44675;BME280;30388;52.038;-1.478;2023-01-29T05:59:45;65586.35;;;8.54;100.00
44675;BME280;30388;52.038;-1.478;2023-01-29T06:02:12;65602.06;;;8.74;100.00
44675;BME280;30388;52.038;-1.478;2023-01-29T06:04:40;65458.59;;;6.92;100.00
44675;BME280;30388;52.038;-1.478;2023-01-29T06:07:07;65552.20;;;8.11;100.00
44675;BME280;30388;52.038;-1.478;2023-01-29T06:09:34;65567.33;;;8.30;100.00
44675;BME280;30388;52.038;-1.478;2023-01-29T06:12:02;65565.84;;;8.28;100.00
44675;BME280;30388;52.038;-1.478;2023-01-29T06:14:29;65524.49;;;7.76;100.00
44675;BME280;30388;52.038;-1.478;2023-01-29T06:16:56;65537.04;;;7.92;100.00
44675;BME280;30388;52.038;-1.478;2023-01-29T06:19:23;65569.18;;;8.33;100.00
44675;BME280;30388;52.038;-1.478;2023-01-29T06:21:51;65583.22;;;8.28;100.00
44675;BME280;30388;52.038;-1.478;2023-01-29T06:24:18;65600.98;;;8.50;100.00
44675;BME280;30388;52.038;-1.478;2023-01-29T06:26:45;65585.81;;;8.53;100.00
44675;BME280;30388;52.038;-1.478;2023-01-29T06:29:12;65604.00;;;8.32;100.00
44675;BME280;30388;52.038;-1.478;2023-01-29T06:31:39;65619.39;;;8.51;100.00
44675;BME280;30388;52.038;-1.478;2023-01-29T06:34:07;65617.37;;;8.71;100.00
44675;BME280;30388;52.038;-1.478;2023-01-29T06:36:34;65616.56;;;8.92;100.00
44675;BME280;30388;52.038;-1.478;2023-01-29T06:39:02;65596.77;;;8.45;100.00
44675;BME280;30388;52.038;-1.478;2023-01-29T06:41:29;65527.24;;;7.79;100.00
44675;BME280;30388;52.038;-1.478;2023-01-29T06:43:57;65592.72;;;8.62;100.00
44675;BME280;30388;52.038;-1.478;2023-01-29T06:46:24;65560.57;;;8.21;100.00
44675;BME280;30388;52.038;-1.478;2023-01-29T06:48:51;65577.61;;;8.43;100.00
44675;BME280;30388;52.038;-1.478;2023-01-29T06:51:18;65575.12;;;8.18;100.00
44675;BME280;30388;52.038;-1.478;2023-01-29T06:53:45;65577.68;;;8.21;100.00
44675;BME280;30388;52.038;-1.478;2023-01-29T06:56:13;65564.97;;;8.05;100.00
44675;BME280;30388;52.038;-1.478;2023-01-29T06:58:40;65584.87;;;8.52;100.00
44675;BME280;30388;52.038;-1.478;2023-01-29T07:01:09;65612.46;;;8.88;100.00
44675;BME280;30388;52.038;-1.478;2023-01-29T07:03:36;65562.12;;;8.23;100.00
44675;BME280;30388;52.038;-1.478;2023-01-29T07:06:04;65528.00;;;7.80;100.00
44675;BME280;30388;52.038;-1.478;2023-01-29T07:08:32;65555.62;;;8.15;100.00
44675;BME280;30388;52.038;-1.478;2023-01-29T07:11:01;65438.55;;;6.67;100.00
44675;BME280;30388;52.038;-1.478;2023-01-29T07:13:29;65500.49;;;7.72;100.00
44675;BME280;30388;52.038;-1.478;2023-01-29T07:15:57;65520.39;;;7.70;100.00
44675;BME280;30388;52.038;-1.478;2023-01-29T07:18:24;65544.18;;;8.01;100.00
44675;BME280;30388;52.038;-1.478;2023-01-29T07:20:52;65545.60;;;8.02;100.00
44675;BME280;30388;52.038;-1.478;2023-01-29T07:23:19;65528.66;;;7.81;100.00
44675;BME280;30388;52.038;-1.478;2023-01-29T07:25:47;65510.65;;;7.58;100.00
44675;BME280;30388;52.038;-1.478;2023-01-29T07:28:14;65502.86;;;7.48;100.00
44675;BME280;30388;52.038;-1.478;2023-01-29T07:30:41;65472.95;;;7.37;100.00
44675;BME280;30388;52.038;-1.478;2023-01-29T07:33:10;65412.50;;;6.83;100.00
44675;BME280;30388;52.038;-1.478;2023-01-29T07:35:38;65461.97;;;7.23;100.00
44675;BME280;30388;52.038;-1.478;2023-01-29T07:38:06;65457.27;;;7.40;100.00
44675;BME280;30388;52.038;-1.478;2023-01-29T07:40:34;65423.40;;;6.74;100.00
44675;BME280;30388;52.038;-1.478;2023-01-29T07:43:04;65427.43;;;6.79;100.00
44675;BME280;30388;52.038;-1.478;2023-01-29T07:45:33;65419.43;;;6.92;100.00
44675;BME280;30388;52.038;-1.478;2023-01-29T07:48:00;65393.03;;;6.58;100.00
44675;BME280;30388;52.038;-1.478;2023-01-29T07:50:28;65444.96;;;7.24;100.00
44675;BME280;30388;52.038;-1.478;2023-01-29T07:52:56;65422.72;;;6.74;100.00
44675;BME280;30388;52.038;-1.478;2023-01-29T07:55:23;65457.36;;;7.40;100.00
44675;BME280;30388;52.038;-1.478;2023-01-29T07:57:54;65485.42;;;7.53;100.00
44675;BME280;30388;52.038;-1.478;2023-01-29T08:00:22;65488.73;;;7.31;100.00
44675;BME280;30388;52.038;-1.478;2023-01-29T08:02:49;65493.13;;;7.63;100.00
44675;BME280;30388;52.038;-1.478;2023-01-29T08:05:17;65443.09;;;7.00;100.00
44675;BME280;30388;52.038;-1.478;2023-01-29T08:07:44;65468.29;;;7.53;100.00
44675;BME280;30388;52.038;-1.478;2023-01-29T08:10:12;65497.09;;;7.41;100.00
44675;BME280;30388;52.038;-1.478;2023-01-29T08:12:39;65453.36;;;7.35;100.00
44675;BME280;30388;52.038;-1.478;2023-01-29T08:15:06;65410.59;;;6.80;100.00
44675;BME280;30388;52.038;-1.478;2023-01-29T08:17:34;65432.05;;;7.07;100.00
44675;BME280;30388;52.038;-1.478;2023-01-29T08:20:01;65455.80;;;6.88;100.00
44675;BME280;30388;52.038;-1.478;2023-01-29T08:22:28;65509.08;;;7.56;100.00
44675;BME280;30388;52.038;-1.478;2023-01-29T08:24:55;65392.47;;;6.57;100.00
44675;BME280;30388;52.038;-1.478;2023-01-29T08:27:22;65300.58;;;5.63;100.00
44675;BME280;30388;52.038;-1.478;2023-01-29T08:29:49;65340.49;;;6.13;100.00
44675;BME280;30388;52.038;-1.478;2023-01-29T08:32:17;65322.66;;;5.68;100.00
44675;BME280;30388;52.038;-1.478;2023-01-29T08:34:44;65291.63;;;5.51;100.00
44675;BME280;30388;52.038;-1.478;2023-01-29T08:37:11;65269.63;;;5.50;100.00
44675;BME280;30388;52.038;-1.478;2023-01-29T08:39:38;65313.42;;;5.79;100.00
44675;BME280;30388;52.038;-1.478;2023-01-29T08:42:05;65302.02;;;5.91;100.00
44675;BME280;30388;52.038;-1.478;2023-01-29T08:44:33;65282.16;;;5.66;100.00
44675;BME280;30388;52.038;-1.478;2023-01-29T08:47:00;65349.50;;;6.03;100.00
44675;BME280;30388;52.038;-1.478;2023-01-29T08:49:27;65358.48;;;6.14;100.00
44675;BME280;30388;52.038;-1.478;2023-01-29T08:51:54;65403.23;;;6.92;100.00
44675;BME280;30388;52.038;-1.478;2023-01-29T08:54:22;65418.36;;;6.90;100.00
44675;BME280;30388;52.038;-1.478;2023-01-29T08:56:50;65304.91;;;5.69;100.00
44675;BME280;30388;52.038;-1.478;2023-01-29T08:59:17;65280.58;;;5.38;100.00
44675;BME280;30388;52.038;-1.478;2023-01-29T09:01:44;65335.06;;;6.07;100.00
44675;BME280;30388;52.038;-1.478;2023-01-29T09:04:11;65315.81;;;5.81;100.00
44675;BME280;30388;52.038;-1.478;2023-01-29T09:06:38;65363.97;;;6.43;100.00
44675;BME280;30388;52.038;-1.478;2023-01-29T09:09:06;65366.50;;;6.24;100.00
44675;BME280;30388;52.038;-1.478;2023-01-29T09:11:33;65431.81;;;7.07;100.00
44675;BME280;30388;52.038;-1.478;2023-01-29T09:14:00;65451.13;;;7.09;100.00
44675;BME280;30388;52.038;-1.478;2023-01-29T09:16:27;65429.84;;;7.04;100.00
44675;BME280;30388;52.038;-1.478;2023-01-29T09:18:55;65382.86;;;6.22;100.00
44675;BME280;30388;52.038;-1.478;2023-01-29T09:21:22;65467.41;;;7.53;100.00
44675;BME280;30388;52.038;-1.478;2023-01-29T09:23:49;65463.82;;;7.48;100.00
44675;BME280;30388;52.038;-1.478;2023-01-29T09:26:16;65456.54;;;6.89;100.00
44675;BME280;30388;52.038;-1.478;2023-01-29T09:28:43;65394.39;;;6.60;100.00
44675;BME280;30388;52.038;-1.478;2023-01-29T09:31:11;65445.68;;;7.03;100.00
44675;BME280;30388;52.038;-1.478;2023-01-29T09:33:38;65452.40;;;7.11;100.00
44675;BME280;30388;52.038;-1.478;2023-01-29T09:36:06;65462.47;;;7.46;100.00
44675;BME280;30388;52.038;-1.478;2023-01-29T09:38:33;65483.21;;;7.23;100.00
44675;BME280;30388;52.038;-1.478;2023-01-29T09:41:07;65468.37;;;7.30;100.00
44675;BME280;30388;52.038;-1.478;2023-01-29T09:43:43;65479.79;;;7.19;100.00
44675;BME280;30388;52.038;-1.478;2023-01-29T09:46:17;65429.35;;;7.03;100.00
44675;BME280;30388;52.038;-1.478;2023-01-29T09:48:47;65418.23;;;6.68;100.00
44675;BME280;30388;52.038;-1.478;2023-01-29T09:51:26;65441.52;;;7.19;100.00
44675;BME280;30388;52.038;-1.478;2023-01-29T09:54:01;65394.36;;;6.37;100.00
44675;BME280;30388;52.038;-1.478;2023-01-29T09:56:32;65382.52;;;6.22;100.00
44675;BME280;30388;52.038;-1.478;2023-01-29T09:59:00;65392.45;;;6.57;100.00
44675;BME280;30388;52.038;-1.478;2023-01-29T10:01:32;65457.11;;;7.39;100.00
44675;BME280;30388;52.038;-1.478;2023-01-29T10:04:19;65481.36;;;7.70;100.00
44675;BME280;30388;52.038;-1.478;2023-01-29T10:07:02;65448.27;;;7.05;100.00
44675;BME280;30388;52.038;-1.478;2023-01-29T10:09:44;65489.45;;;7.30;100.00
44675;BME280;30388;52.038;-1.478;2023-01-29T10:12:34;65478.95;;;7.19;100.00
44675;BME280;30388;52.038;-1.478;2023-01-29T10:15:17;65500.54;;;7.45;100.00
44675;BME280;30388;52.038;-1.478;2023-01-29T10:17:57;65456.56;;;7.16;100.00
44675;BME280;30388;52.038;-1.478;2023-01-29T10:20:41;65487.15;;;7.77;100.00
44675;BME280;30388;52.038;-1.478;2023-01-29T10:23:22;65528.05;;;7.81;100.00
44675;BME280;30388;52.038;-1.478;2023-01-29T10:25:50;65536.27;;;7.90;100.00
44675;BME280;30388;52.038;-1.478;2023-01-29T10:28:20;65538.29;;;7.70;100.00
44675;BME280;30388;52.038;-1.478;2023-01-29T10:30:54;65538.73;;;7.93;100.00
44675;BME280;30388;52.038;-1.478;2023-01-29T10:33:27;65527.12;;;7.79;100.00
44675;BME280;30388;52.038;-1.478;2023-01-29T10:36:01;65528.61;;;8.08;100.00
44675;BME280;30388;52.038;-1.478;2023-01-29T10:38:37;65534.65;;;7.88;100.00
44675;BME280;30388;52.038;-1.478;2023-01-29T10:41:17;65505.66;;;7.52;100.00
44675;BME280;30388;52.038;-1.478;2023-01-29T10:43:57;65590.07;;;8.58;100.00
44675;BME280;30388;52.038;-1.478;2023-01-29T10:46:38;65703.18;;;9.57;100.00
44675;BME280;30388;52.038;-1.478;2023-01-29T10:49:20;65537.98;;;7.49;100.00
44675;BME280;30388;52.038;-1.478;2023-01-29T10:52:03;65598.48;;;8.47;100.00
44675;BME280;30388;52.038;-1.478;2023-01-29T10:54:47;65639.01;;;8.98;100.00
44675;BME280;30388;52.038;-1.478;2023-01-29T10:57:22;65648.94;;;8.89;100.00
44675;BME280;30388;52.038;-1.478;2023-01-29T11:00:03;65693.60;;;9.45;100.00
44675;BME280;30388;52.038;-1.478;2023-01-29T11:02:30;65628.04;;;8.63;100.00
44675;BME280;30388;52.038;-1.478;2023-01-29T11:04:59;65574.67;;;8.17;100.00
44675;BME280;30388;52.038;-1.478;2023-01-29T11:07:27;65609.72;;;8.83;100.00
44675;BME280;30388;52.038;-1.478;2023-01-29T11:09:59;65540.10;;;7.73;100.00
44675;BME280;30388;52.038;-1.478;2023-01-29T11:12:30;65573.68;;;8.16;100.00
44675;BME280;30388;52.038;-1.478;2023-01-29T11:15:02;65564.78;;;8.26;100.00
44675;BME280;30388;52.038;-1.478;2023-01-29T11:17:32;65536.20;;;8.17;100.00
44675;BME280;30388;52.038;-1.478;2023-01-29T11:19:59;65570.48;;;8.34;100.00
44675;BME280;30388;52.038;-1.478;2023-01-29T11:22:27;65587.43;;;8.54;100.00
44675;BME280;30388;52.038;-1.478;2023-01-29T11:25:21;65622.30;;;8.55;100.00
44675;BME280;30388;52.038;-1.478;2023-01-29T11:27:51;65668.66;;;9.13;100.00
44675;BME280;30388;52.038;-1.478;2023-01-29T11:30:22;65663.35;;;9.29;100.00
44675;BME280;30388;52.038;-1.478;2023-01-29T11:32:54;65609.11;;;8.60;100.00
44675;BME280;30388;52.038;-1.478;2023-01-29T11:35:24;65731.96;;;9.67;100.00
44675;BME280;30388;52.038;-1.478;2023-01-29T11:37:51;65705.27;;;9.12;100.00
44675;BME280;30388;52.038;-1.478;2023-01-29T11:40:36;65735.78;;;9.72;100.00
44675;BME280;30388;52.038;-1.478;2023-01-29T11:43:22;65712.43;;;9.43;100.00
44675;BME280;30388;52.038;-1.478;2023-01-29T11:45:55;65707.16;;;9.62;100.00
44675;BME280;30388;52.038;-1.478;2023-01-29T11:48:30;65704.08;;;9.32;100.00
44675;BME280;30388;52.038;-1.478;2023-01-29T11:51:00;65697.61;;;9.24;100.00
44675;BME280;30388;52.038;-1.478;2023-01-29T11:53:35;65682.31;;;9.30;100.00
44675;BME280;30388;52.038;-1.478;2023-01-29T11:56:06;65719.53;;;9.29;100.00
44675;BME280;30388;52.038;-1.478;2023-01-29T11:58:41;65715.57;;;9.25;100.00
44675;BME280;30388;52.038;-1.478;2023-01-29T12:01:09;65730.88;;;9.93;100.00
44675;BME280;30388;52.038;-1.478;2023-01-29T12:03:41;65756.36;;;9.76;100.00
44675;BME280;30388;52.038;-1.478;2023-01-29T12:06:21;65741.75;;;10.06;100.00
44675;BME280;30388;52.038;-1.478;2023-01-29T12:08:54;65728.45;;;9.90;100.00
44675;BME280;30388;52.038;-1.478;2023-01-29T12:11:26;65789.74;;;10.66;100.00
44675;BME280;30388;52.038;-1.478;2023-01-29T12:13:56;65688.25;;;9.38;100.00
44675;BME280;30388;52.038;-1.478;2023-01-29T12:16:28;65725.12;;;9.58;100.00
44675;BME280;30388;52.038;-1.478;2023-01-29T12:19:08;65748.03;;;9.88;100.00
44675;BME280;30388;52.038;-1.478;2023-01-29T12:21:44;65658.81;;;9.01;100.00
44675;BME280;30388;52.038;-1.478;2023-01-29T12:24:24;65651.68;;;9.14;100.00
44675;BME280;30388;52.038;-1.478;2023-01-29T12:26:59;65744.92;;;10.10;100.00
44675;BME280;30388;52.038;-1.478;2023-01-29T12:29:35;65757.50;;;9.77;100.00
44675;BME280;30388;52.038;-1.478;2023-01-29T12:32:08;65818.58;;;10.54;100.00
44675;BME280;30388;52.038;-1.478;2023-01-29T12:34:47;65761.91;;;10.05;100.00
44675;BME280;30388;52.038;-1.478;2023-01-29T12:37:21;65755.26;;;9.74;100.00
44675;BME280;30388;52.038;-1.478;2023-01-29T12:39:51;65696.34;;;9.22;100.00
44675;BME280;30388;52.038;-1.478;2023-01-29T12:42:20;65611.33;;;8.63;100.00
44675;BME280;30388;52.038;-1.478;2023-01-29T12:44:50;65628.66;;;8.85;100.00
44675;BME280;30388;52.038;-1.478;2023-01-29T12:47:22;65700.12;;;9.54;100.00
44675;BME280;30388;52.038;-1.478;2023-01-29T12:49:53;65719.66;;;9.79;100.00
44675;BME280;30388;52.038;-1.478;2023-01-29T12:52:32;65636.20;;;8.73;100.00
44675;BME280;30388;52.038;-1.478;2023-01-29T12:55:05;65623.15;;;8.55;100.00
44675;BME280;30388;52.038;-1.478;2023-01-29T12:57:41;65707.36;;;9.36;100.00
44675;BME280;30388;52.038;-1.478;2023-01-29T13:00:14;65655.66;;;8.97;100.00
44675;BME280;30388;52.038;-1.478;2023-01-29T13:02:48;65635.68;;;8.94;100.00
44675;BME280;30388;52.038;-1.478;2023-01-29T13:05:27;65622.88;;;8.78;100.00
44675;BME280;30388;52.038;-1.478;2023-01-29T13:08:02;65542.87;;;7.99;100.00
44675;BME280;30388;52.038;-1.478;2023-01-29T13:10:34;65595.69;;;8.66;100.00